createdAt,value
2018-07-26T00:01:28.862Z,43.20
2018-07-26T00:03:57.087Z,42.90
2018-07-26T00:06:26.064Z,43.00
2018-07-26T00:08:55.090Z,43.90
2018-07-26T00:11:23.305Z,43.90
2018-07-26T00:13:51.589Z,43.10
2018-07-26T00:16:19.822Z,44.10
2018-07-26T00:18:48.020Z,44.70
2018-07-26T00:21:16.293Z,43.60
2018-07-26T00:23:44.499Z,43.80
2018-07-26T00:26:12.727Z,44.00
2018-07-26T00:28:40.929Z,45.60
2018-07-26T00:31:09.216Z,42.90
2018-07-26T00:33:37.453Z,43.10
2018-07-26T00:36:05.653Z,42.90
2018-07-26T00:38:33.927Z,42.70
2018-07-26T00:41:02.119Z,42.90
2018-07-26T00:43:30.388Z,43.00
2018-07-26T00:45:58.589Z,43.00
2018-07-26T00:48:26.817Z,43.10
2018-07-26T00:50:55.077Z,42.90
2018-07-26T00:53:24.062Z,43.00
2018-07-26T00:55:52.302Z,42.90
2018-07-26T00:58:20.519Z,42.90
2018-07-26T01:00:48.737Z,42.90
2018-07-26T01:03:16.984Z,43.20
2018-07-26T01:05:45.200Z,43.30
2018-07-26T01:08:13.447Z,43.30
2018-07-26T01:10:41.668Z,43.10
2018-07-26T01:13:09.909Z,44.10
2018-07-26T01:15:38.153Z,43.60
2018-07-26T01:18:07.141Z,43.40
2018-07-26T01:20:36.157Z,43.40
2018-07-26T01:23:04.414Z,43.40
2018-07-26T01:25:33.374Z,43.60
2018-07-26T01:28:01.594Z,43.50
2018-07-26T01:30:29.847Z,44.00
2018-07-26T01:32:58.048Z,43.80
2018-07-26T01:35:26.305Z,44.10
2018-07-26T01:37:55.323Z,43.70
2018-07-26T01:40:23.578Z,43.70
2018-07-26T01:42:52.586Z,43.60
2018-07-26T01:45:20.812Z,43.60
2018-07-26T01:47:49.034Z,43.80
2018-07-26T01:50:18.036Z,43.80
2018-07-26T01:52:46.298Z,43.90
2018-07-26T01:55:15.303Z,44.00
2018-07-26T01:57:43.534Z,43.90
2018-07-26T02:00:11.742Z,44.30
2018-07-26T02:02:40.790Z,44.40
2018-07-26T02:05:08.990Z,44.30
2018-07-26T02:07:37.246Z,44.20
2018-07-26T02:10:06.294Z,44.10
2018-07-26T02:12:34.542Z,44.10
2018-07-26T02:15:02.765Z,45.10
2018-07-26T02:17:30.970Z,44.50
2018-07-26T02:19:59.248Z,44.00
2018-07-26T02:22:27.440Z,44.30
2018-07-26T02:24:55.717Z,45.80
2018-07-26T02:27:23.950Z,46.40
2018-07-26T02:29:52.159Z,44.80
2018-07-26T02:32:20.376Z,45.30
2018-07-26T02:34:48.589Z,45.70
2018-07-26T02:37:16.804Z,45.60
2018-07-26T02:39:45.791Z,45.00
2018-07-26T02:42:14.072Z,44.60
2018-07-26T02:44:42.314Z,44.70
2018-07-26T02:47:10.523Z,44.50
2018-07-26T02:49:38.790Z,44.50
2018-07-26T02:52:06.996Z,45.30
2018-07-26T02:54:35.979Z,45.10
2018-07-26T02:57:04.956Z,45.30
2018-07-26T02:59:33.230Z,45.30
2018-07-26T03:02:01.436Z,46.30
2018-07-26T03:04:30.434Z,45.30
2018-07-26T03:06:59.436Z,44.90
2018-07-26T03:09:28.411Z,45.70
2018-07-26T03:11:56.670Z,45.70
2018-07-26T03:14:24.869Z,46.40
2018-07-26T03:16:53.902Z,45.80
2018-07-26T03:19:22.119Z,45.70
2018-07-26T03:21:50.324Z,45.80
2018-07-26T03:24:18.589Z,45.90
2018-07-26T03:26:47.609Z,46.40
2018-07-26T03:29:15.863Z,46.40
2018-07-26T03:31:44.826Z,45.80
2018-07-26T03:34:13.101Z,45.50
2018-07-26T03:36:41.338Z,45.90
2018-07-26T03:39:09.576Z,46.20
2018-07-26T03:41:37.790Z,51.10
2018-07-26T03:44:06.060Z,47.90
2018-07-26T03:46:35.074Z,47.00
2018-07-26T03:49:03.322Z,47.00
2018-07-26T03:51:32.347Z,46.40
2018-07-26T03:54:00.602Z,46.50
2018-07-26T03:56:28.815Z,46.60
2018-07-26T03:58:57.031Z,46.90
2018-07-26T04:01:26.006Z,47.80
2018-07-26T04:03:54.238Z,47.80
2018-07-26T04:06:22.447Z,46.70
2018-07-26T04:08:50.730Z,46.30
2018-07-26T04:11:18.976Z,47.10
2018-07-26T04:13:47.208Z,53.90
2018-07-26T04:16:16.195Z,59.50
2018-07-26T04:18:45.218Z,57.30
2018-07-26T04:21:13.474Z,57.30
2018-07-26T04:23:42.469Z,58.50
2018-07-26T04:26:11.538Z,62.60
2018-07-26T04:28:39.724Z,62.60
2018-07-26T04:31:07.924Z,51.70
2018-07-26T04:33:36.146Z,51.30
2018-07-26T04:36:04.346Z,49.70
2018-07-26T04:38:32.575Z,48.40
2018-07-26T04:41:00.821Z,48.20
2018-07-26T04:43:29.820Z,48.30
2018-07-26T04:45:58.830Z,56.60
2018-07-26T04:48:27.057Z,56.60
2018-07-26T04:50:55.260Z,60.40
2018-07-26T04:53:24.286Z,55.00
2018-07-26T04:55:52.532Z,54.80
2018-07-26T04:58:21.539Z,57.20
2018-07-26T05:00:49.753Z,57.20
2018-07-26T05:03:17.968Z,56.70
2018-07-26T05:05:46.998Z,49.80
2018-07-26T05:08:15.324Z,49.80
2018-07-26T05:10:43.510Z,49.40
2018-07-26T05:13:11.715Z,49.70
2018-07-26T05:15:40.005Z,49.70
2018-07-26T05:18:08.208Z,50.00
2018-07-26T05:20:36.435Z,49.10
2018-07-26T05:23:05.415Z,48.60
2018-07-26T05:25:34.434Z,48.50
2018-07-26T05:28:03.457Z,48.40
2018-07-26T05:30:31.671Z,48.50
2018-07-26T05:32:59.945Z,47.80
2018-07-26T05:35:28.196Z,47.80
2018-07-26T05:37:56.560Z,47.70
2018-07-26T05:40:24.717Z,47.80
2018-07-26T05:42:53.131Z,47.60
2018-07-26T05:45:21.397Z,47.60
2018-07-26T05:47:49.650Z,48.20
2018-07-26T05:50:18.639Z,47.20
2018-07-26T05:52:46.883Z,47.30
2018-07-26T05:55:15.157Z,47.10
2018-07-26T05:57:43.429Z,47.10
2018-07-26T06:00:11.760Z,47.00
2018-07-26T06:02:39.919Z,47.00
2018-07-26T06:05:08.933Z,46.70
2018-07-26T06:07:37.142Z,46.70
2018-07-26T06:10:05.393Z,46.70
2018-07-26T06:12:33.624Z,46.70
2018-07-26T06:15:02.594Z,46.60
2018-07-26T06:17:30.824Z,46.60
2018-07-26T06:19:59.030Z,47.00
2018-07-26T06:22:27.282Z,46.60
2018-07-26T06:24:55.516Z,46.90
2018-07-26T06:27:24.536Z,47.40
2018-07-26T06:29:52.801Z,47.10
2018-07-26T06:32:21.811Z,46.80
2018-07-26T06:34:50.808Z,47.00
2018-07-26T06:37:19.008Z,47.00
2018-07-26T06:39:47.241Z,46.60
2018-07-26T06:42:16.208Z,47.00
2018-07-26T06:44:44.464Z,47.00
2018-07-26T06:47:12.691Z,46.70
2018-07-26T06:49:41.670Z,46.70
2018-07-26T06:52:10.702Z,47.20
2018-07-26T06:54:38.948Z,46.60
2018-07-26T06:57:07.223Z,46.60
2018-07-26T06:59:35.420Z,47.20
2018-07-26T07:02:03.683Z,46.60
2018-07-26T07:04:32.717Z,46.80
2018-07-26T07:07:00.919Z,46.80
2018-07-26T07:09:29.197Z,47.20
2018-07-26T07:11:57.438Z,47.40
2018-07-26T07:14:25.712Z,48.40
2018-07-26T07:16:53.919Z,47.30
2018-07-26T07:19:22.163Z,47.10
2018-07-26T07:21:50.426Z,47.50
2018-07-26T07:24:18.640Z,48.50
2018-07-26T07:26:46.907Z,47.90
2018-07-26T07:29:15.158Z,47.90
2018-07-26T07:31:44.154Z,47.80
2018-07-26T07:34:12.415Z,47.80
2018-07-26T07:36:41.426Z,47.70
2018-07-26T07:39:09.649Z,47.70
2018-07-26T07:41:37.880Z,48.00
2018-07-26T07:44:06.153Z,47.60
2018-07-26T07:46:34.425Z,47.80
2018-07-26T07:49:03.412Z,47.90
2018-07-26T07:51:32.382Z,49.20
2018-07-26T07:54:00.595Z,49.10
2018-07-26T07:56:28.865Z,48.30
2018-07-26T07:58:57.869Z,47.90
2018-07-26T08:01:26.131Z,47.90
2018-07-26T08:03:55.144Z,48.10
2018-07-26T08:06:23.417Z,48.00
2018-07-26T08:08:51.667Z,48.60
2018-07-26T08:11:19.913Z,48.20
2018-07-26T08:13:48.139Z,48.40
2018-07-26T08:16:17.280Z,47.80
2018-07-26T08:18:45.550Z,47.80
2018-07-26T08:21:13.767Z,47.90
2018-07-26T08:23:42.005Z,48.10
2018-07-26T08:26:10.224Z,48.30
2018-07-26T08:28:39.206Z,47.80
2018-07-26T08:31:07.487Z,47.80
2018-07-26T08:33:35.696Z,47.60
2018-07-26T08:36:03.934Z,47.80
2018-07-26T08:38:32.155Z,47.60
2018-07-26T08:41:00.414Z,47.50
2018-07-26T08:43:28.638Z,47.70
2018-07-26T08:45:57.274Z,47.40
2018-07-26T08:48:26.289Z,47.30
2018-07-26T08:50:54.561Z,47.30
2018-07-26T08:53:23.560Z,47.10
2018-07-26T08:55:51.754Z,47.10
2018-07-26T08:58:19.974Z,46.80
2018-07-26T09:00:49.000Z,46.80
2018-07-26T09:03:17.227Z,46.80
2018-07-26T09:05:45.440Z,46.80
2018-07-26T09:08:14.511Z,46.60
2018-07-26T09:10:42.742Z,47.20
2018-07-26T09:13:10.961Z,45.80
2018-07-26T09:15:39.187Z,47.10
2018-07-26T09:18:07.445Z,46.20
2018-07-26T09:20:36.503Z,45.90
2018-07-26T09:23:04.747Z,45.90
2018-07-26T09:25:32.954Z,46.10
2018-07-26T09:28:01.219Z,45.90
2018-07-26T09:30:29.434Z,46.10
2018-07-26T09:32:58.513Z,46.40
2018-07-26T09:35:26.685Z,45.70
2018-07-26T09:37:56.404Z,45.00
2018-07-26T09:40:25.391Z,45.60
2018-07-26T09:42:54.415Z,46.00
2018-07-26T09:45:22.677Z,45.40
2018-07-26T09:47:51.652Z,45.10
2018-07-26T09:50:20.209Z,45.00
2018-07-26T09:52:48.785Z,45.30
2018-07-26T09:55:16.973Z,44.70
2018-07-26T09:57:45.235Z,44.90
2018-07-26T10:00:13.505Z,44.90
2018-07-26T10:02:41.793Z,45.00
2018-07-26T10:05:10.036Z,44.80
2018-07-26T10:07:39.012Z,44.80
2018-07-26T10:10:08.061Z,44.70
2018-07-26T10:12:36.771Z,44.70
2018-07-26T10:15:05.052Z,44.80
2018-07-26T10:17:33.231Z,44.90
2018-07-26T10:20:01.572Z,43.90
2018-07-26T10:22:30.543Z,44.60
2018-07-26T10:24:59.741Z,44.60
2018-07-26T10:27:28.013Z,44.70
2018-07-26T10:29:56.218Z,44.70
2018-07-26T10:32:24.447Z,44.70
2018-07-26T10:34:53.467Z,44.30
2018-07-26T10:37:21.757Z,44.40
2018-07-26T10:39:50.013Z,44.50
2018-07-26T10:42:18.984Z,44.30
2018-07-26T10:44:47.975Z,44.80
2018-07-26T10:47:16.960Z,44.30
2018-07-26T10:49:45.219Z,44.30
2018-07-26T10:52:13.572Z,44.20
2018-07-26T10:54:41.818Z,44.20
2018-07-26T10:57:10.799Z,43.90
2018-07-26T10:59:39.822Z,43.90
2018-07-26T11:02:08.091Z,43.80
2018-07-26T11:04:37.907Z,43.90
2018-07-26T11:07:06.168Z,43.90
2018-07-26T11:09:35.147Z,41.40
2018-07-26T11:12:03.382Z,41.50
2018-07-26T11:14:32.135Z,41.50
2018-07-26T11:17:01.020Z,41.10
2018-07-26T11:19:29.272Z,39.60
2018-07-26T11:21:57.486Z,42.10
2018-07-26T11:24:25.719Z,42.30
2018-07-26T11:26:53.928Z,42.50
2018-07-26T11:29:22.492Z,39.70
2018-07-26T11:31:50.729Z,41.30
2018-07-26T11:34:19.820Z,41.60
2018-07-26T11:36:48.067Z,42.10
2018-07-26T11:39:16.266Z,42.10
2018-07-26T11:41:44.571Z,42.70
2018-07-26T11:44:13.502Z,43.20
2018-07-26T11:46:42.161Z,43.20
2018-07-26T11:49:10.429Z,39.80
2018-07-26T11:51:38.657Z,42.50
2018-07-26T11:54:06.872Z,41.70
2018-07-26T11:56:35.139Z,42.20
2018-07-26T11:59:03.354Z,41.80
2018-07-26T12:01:31.612Z,41.80
2018-07-26T12:03:59.870Z,41.60
2018-07-26T12:06:28.073Z,40.80
2018-07-26T12:08:56.357Z,41.80
2018-07-26T12:11:24.552Z,37.80
2018-07-26T12:13:53.559Z,41.30
2018-07-26T12:16:21.819Z,41.30
2018-07-26T12:18:50.034Z,40.30
2018-07-26T12:21:18.302Z,37.60
2018-07-26T12:23:46.507Z,40.20
2018-07-26T12:26:14.826Z,40.20
2018-07-26T12:28:43.797Z,34.80
2018-07-26T12:31:12.047Z,35.00
2018-07-26T12:33:40.294Z,39.30
2018-07-26T12:36:08.519Z,39.70
2018-07-26T12:38:36.756Z,39.50
2018-07-26T12:41:04.960Z,38.00
2018-07-26T12:43:33.252Z,39.00
2018-07-26T12:46:01.447Z,38.80
2018-07-26T12:48:30.471Z,38.60
2018-07-26T12:50:58.721Z,38.50
2018-07-26T12:53:26.944Z,39.70
2018-07-26T12:55:55.770Z,40.00
2018-07-26T12:58:24.023Z,38.80
2018-07-26T13:00:52.250Z,38.10
2018-07-26T13:03:21.270Z,38.70
2018-07-26T13:05:49.562Z,38.70
2018-07-26T13:08:17.771Z,39.20
2018-07-26T13:10:46.009Z,36.60
2018-07-26T13:13:14.246Z,38.50
2018-07-26T13:15:42.512Z,38.80
2018-07-26T13:18:10.772Z,38.50
2018-07-26T13:20:39.011Z,39.50
2018-07-26T13:23:07.972Z,38.70
2018-07-26T13:25:36.964Z,35.10
2018-07-26T13:28:05.955Z,35.40
2018-07-26T13:30:35.067Z,38.80
2018-07-26T13:33:03.273Z,38.80
2018-07-26T13:35:31.546Z,38.80
2018-07-26T13:37:59.804Z,38.10
2018-07-26T13:40:28.851Z,33.80
2018-07-26T13:42:57.045Z,34.00
2018-07-26T13:45:26.081Z,37.40
2018-07-26T13:47:54.288Z,37.40
2018-07-26T13:50:22.523Z,37.60
2018-07-26T13:52:51.889Z,37.40
2018-07-26T13:55:20.121Z,37.60
2018-07-26T13:57:48.351Z,37.60
2018-07-26T14:00:17.403Z,34.90
2018-07-26T14:02:45.616Z,34.80
2018-07-26T14:05:14.634Z,37.00
2018-07-26T14:07:42.877Z,37.00
2018-07-26T14:10:11.122Z,37.40
2018-07-26T14:12:39.329Z,36.30
2018-07-26T14:15:07.601Z,37.70
2018-07-26T14:17:35.857Z,37.60
2018-07-26T14:20:04.066Z,36.20
2018-07-26T14:22:32.311Z,37.50
2018-07-26T14:25:00.531Z,37.50
2018-07-26T14:27:28.781Z,35.50
2018-07-26T14:29:57.004Z,37.20
2018-07-26T14:32:25.277Z,38.00
2018-07-26T14:34:54.320Z,36.80
2018-07-26T14:37:22.571Z,36.90
2018-07-26T14:39:50.817Z,36.80
2018-07-26T14:42:19.841Z,34.40
2018-07-26T14:44:48.100Z,34.40
2018-07-26T14:47:16.332Z,31.50
2018-07-26T14:49:44.592Z,30.90
2018-07-26T14:52:12.873Z,32.50
2018-07-26T14:54:41.126Z,28.50
2018-07-26T14:57:09.369Z,34.50
2018-07-26T14:59:38.402Z,35.40
2018-07-26T15:02:06.669Z,35.40
2018-07-26T15:04:34.903Z,33.10
2018-07-26T15:07:03.888Z,33.00
2018-07-26T15:09:32.179Z,32.50
2018-07-26T15:12:01.225Z,33.00
2018-07-26T15:14:29.478Z,33.00
2018-07-26T15:16:57.688Z,29.90
2018-07-26T15:19:25.946Z,32.00
2018-07-26T15:21:54.212Z,32.40
2018-07-26T15:24:22.484Z,32.80
2018-07-26T15:26:51.723Z,30.30
2018-07-26T15:29:19.918Z,30.50
2018-07-26T15:31:48.624Z,33.50
2018-07-26T15:34:16.888Z,33.80
2018-07-26T15:36:45.172Z,33.30
2018-07-26T15:39:13.464Z,29.90
2018-07-26T15:41:41.705Z,33.10
2018-07-26T15:44:09.970Z,33.80
2018-07-26T15:46:38.236Z,33.60
2018-07-26T15:49:06.532Z,34.00
2018-07-26T15:51:34.786Z,33.90
2018-07-26T15:54:03.040Z,33.50
2018-07-26T15:56:31.252Z,33.50
2018-07-26T15:58:59.520Z,32.00
2018-07-26T16:01:27.763Z,33.50
2018-07-26T16:03:55.975Z,30.40
2018-07-26T16:06:24.236Z,33.00
2018-07-26T16:08:52.453Z,29.00
2018-07-26T16:11:20.710Z,31.80
2018-07-26T16:13:48.979Z,31.60
2018-07-26T16:16:17.195Z,28.30
2018-07-26T16:18:46.176Z,32.60
2018-07-26T16:21:14.408Z,32.50
2018-07-26T16:23:42.660Z,32.10
2018-07-26T16:26:11.135Z,28.80
2018-07-26T16:28:40.353Z,31.60
2018-07-26T16:31:09.373Z,32.10
2018-07-26T16:33:37.575Z,32.10
2018-07-26T16:36:05.850Z,31.90
2018-07-26T16:38:34.093Z,32.90
2018-07-26T16:41:02.356Z,32.50
2018-07-26T16:43:30.587Z,32.80
2018-07-26T16:45:58.803Z,32.80
2018-07-26T16:48:27.071Z,33.00
2018-07-26T16:50:56.047Z,32.80
2018-07-26T16:53:24.269Z,32.70
2018-07-26T16:55:52.537Z,32.90
2018-07-26T16:58:20.845Z,32.30
2018-07-26T17:00:48.977Z,31.70
2018-07-26T17:03:17.197Z,32.00
2018-07-26T17:05:47.479Z,32.70
2018-07-26T17:08:16.440Z,32.50
2018-07-26T17:10:45.511Z,32.70
2018-07-26T17:13:13.704Z,32.60
2018-07-26T17:15:41.999Z,32.20
2018-07-26T17:18:11.017Z,32.10
2018-07-26T17:20:39.276Z,32.10
2018-07-26T17:23:08.319Z,32.40
2018-07-26T17:25:36.568Z,32.40
2018-07-26T17:28:04.834Z,32.50
2018-07-26T17:30:33.843Z,31.70
2018-07-26T17:33:02.111Z,31.70
2018-07-26T17:35:30.331Z,32.10
2018-07-26T17:37:59.404Z,31.40
2018-07-26T17:40:27.621Z,31.40
2018-07-26T17:42:55.874Z,32.20
2018-07-26T17:45:24.176Z,32.20
2018-07-26T17:47:52.439Z,32.00
2018-07-26T17:50:20.748Z,32.20
2018-07-26T17:52:48.965Z,32.40
2018-07-26T17:55:17.236Z,32.10
2018-07-26T17:57:45.460Z,32.30
2018-07-26T18:00:13.705Z,32.20
2018-07-26T18:02:41.974Z,32.50
2018-07-26T18:05:10.235Z,32.00
2018-07-26T18:07:38.517Z,33.00
2018-07-26T18:10:06.760Z,31.90
2018-07-26T18:12:35.804Z,32.70
2018-07-26T18:15:04.011Z,32.70
2018-07-26T18:17:32.291Z,32.90
2018-07-26T18:20:00.534Z,33.10
2018-07-26T18:22:28.802Z,33.20
2018-07-26T18:24:57.012Z,33.10
2018-07-26T18:27:25.241Z,33.10
2018-07-26T18:29:53.502Z,33.20
2018-07-26T18:32:22.481Z,33.10
2018-07-26T18:34:50.776Z,33.00
2018-07-26T18:37:19.743Z,32.90
2018-07-26T18:39:47.952Z,32.80
2018-07-26T18:42:16.229Z,32.90
2018-07-26T18:44:44.453Z,33.00
2018-07-26T18:47:12.718Z,33.10
2018-07-26T18:49:40.993Z,32.90
2018-07-26T18:52:09.201Z,32.70
2018-07-26T18:54:37.476Z,32.80
2018-07-26T18:57:05.749Z,32.90
2018-07-26T18:59:33.971Z,32.70
2018-07-26T19:02:02.232Z,33.00
2018-07-26T19:04:30.440Z,33.00
2018-07-26T19:06:58.645Z,32.80
2018-07-26T19:09:26.870Z,33.70
2018-07-26T19:11:55.125Z,33.10
2018-07-26T19:14:23.345Z,33.10
2018-07-26T19:16:51.607Z,33.20
2018-07-26T19:19:19.870Z,33.20
2018-07-26T19:21:48.850Z,33.10
2018-07-26T19:24:17.886Z,33.20
2018-07-26T19:26:46.121Z,33.20
2018-07-26T19:29:15.155Z,33.30
2018-07-26T19:31:43.375Z,33.30
2018-07-26T19:34:11.622Z,33.30
2018-07-26T19:36:39.854Z,33.30
2018-07-26T19:39:08.848Z,33.40
2018-07-26T19:41:37.886Z,33.40
2018-07-26T19:44:06.100Z,33.50
2018-07-26T19:46:34.308Z,33.50
2018-07-26T19:49:02.584Z,33.40
2018-07-26T19:51:30.809Z,33.40
2018-07-26T19:53:59.111Z,33.50
2018-07-26T19:56:27.343Z,33.50
2018-07-26T19:58:55.548Z,33.50
2018-07-26T20:01:23.845Z,33.50
2018-07-26T20:03:52.106Z,33.60
2018-07-26T20:06:20.305Z,33.70
2018-07-26T20:08:49.293Z,33.80
2018-07-26T20:11:18.289Z,33.80
2018-07-26T20:13:47.292Z,33.80
2018-07-26T20:16:16.312Z,34.00
2018-07-26T20:18:44.560Z,34.00
2018-07-26T20:21:13.584Z,33.90
2018-07-26T20:23:41.816Z,33.80
2018-07-26T20:26:10.855Z,33.90
2018-07-26T20:28:39.107Z,33.90
2018-07-26T20:31:07.321Z,34.10
2018-07-26T20:33:36.304Z,34.50
2018-07-26T20:36:04.533Z,34.50
2018-07-26T20:38:32.738Z,34.20
2018-07-26T20:41:00.961Z,34.10
2018-07-26T20:43:29.173Z,34.10
2018-07-26T20:45:58.230Z,34.10
2018-07-26T20:48:26.554Z,34.10
2018-07-26T20:50:54.731Z,34.10
2018-07-26T20:53:23.765Z,34.20
2018-07-26T20:55:51.975Z,34.20
2018-07-26T20:58:20.234Z,34.60
2018-07-26T21:00:48.435Z,34.60
2018-07-26T21:03:17.471Z,34.80
2018-07-26T21:05:45.733Z,34.90
2018-07-26T21:08:14.022Z,35.70
2018-07-26T21:10:42.278Z,34.50
2018-07-26T21:13:11.313Z,35.10
2018-07-26T21:15:39.527Z,35.10
2018-07-26T21:18:07.827Z,34.90
2018-07-26T21:20:36.024Z,35.30
2018-07-26T21:23:04.236Z,34.90
2018-07-26T21:25:32.479Z,36.30
2018-07-26T21:28:00.747Z,35.00
2018-07-26T21:30:28.960Z,34.90
2018-07-26T21:32:57.241Z,34.80
2018-07-26T21:35:25.486Z,35.30
2018-07-26T21:37:53.703Z,34.70
2018-07-26T21:40:21.977Z,34.80
2018-07-26T21:42:50.189Z,35.70
2018-07-26T21:45:19.240Z,35.40
2018-07-26T21:47:47.514Z,35.40
2018-07-26T21:50:15.760Z,35.10
2018-07-26T21:52:44.024Z,35.30
2018-07-26T21:55:12.287Z,35.00
2018-07-26T21:57:41.282Z,35.70
2018-07-26T22:00:10.293Z,35.40
2018-07-26T22:02:38.568Z,35.40
2018-07-26T22:05:06.752Z,35.20
2018-07-26T22:07:35.018Z,35.30
2018-07-26T22:10:03.981Z,35.20
2018-07-26T22:12:33.014Z,35.80
2018-07-26T22:15:01.231Z,35.70
2018-07-26T22:17:29.492Z,36.40
2018-07-26T22:19:57.701Z,35.70
2018-07-26T22:22:25.952Z,35.80
2018-07-26T22:24:54.164Z,36.50
2018-07-26T22:27:23.200Z,36.70
2018-07-26T22:29:51.438Z,36.50
2018-07-26T22:32:20.471Z,35.70
2018-07-26T22:34:48.734Z,35.70
2018-07-26T22:37:16.987Z,35.50
2018-07-26T22:39:46.008Z,35.60
2018-07-26T22:42:14.244Z,35.60
2018-07-26T22:44:42.453Z,36.10
2018-07-26T22:47:10.715Z,35.60
2018-07-26T22:49:39.699Z,36.40
2018-07-26T22:52:08.700Z,35.80
2018-07-26T22:54:37.707Z,35.70
2018-07-26T22:57:05.913Z,35.70
2018-07-26T22:59:34.165Z,37.20
2018-07-26T23:02:02.381Z,38.70
2018-07-26T23:04:30.605Z,38.10
2018-07-26T23:06:59.581Z,39.10
2018-07-26T23:09:27.837Z,39.20
2018-07-26T23:11:56.079Z,36.80
2018-07-26T23:14:24.334Z,36.60
2018-07-26T23:16:52.561Z,38.20
2018-07-26T23:19:20.809Z,37.40
2018-07-26T23:21:49.051Z,37.10
2018-07-26T23:24:18.090Z,36.70
2018-07-26T23:26:46.335Z,36.70
2018-07-26T23:29:15.376Z,36.60
2018-07-26T23:31:43.581Z,36.60
2018-07-26T23:34:12.598Z,37.30
2018-07-26T23:36:41.590Z,36.70
2018-07-26T23:39:10.554Z,37.00
2018-07-26T23:41:38.814Z,37.00
2018-07-26T23:44:07.050Z,37.90
2018-07-26T23:46:35.578Z,37.00
2018-07-26T23:49:03.831Z,36.90
2018-07-26T23:51:32.098Z,37.00
2018-07-26T23:54:00.298Z,37.30
2018-07-26T23:56:28.539Z,37.20
2018-07-26T23:58:56.800Z,37.20
